sensor_id;sensor_type;location;lat;lon;timestamp;temperature;humidity
25482;DHT22;13395;50.752;4.268;2023-08-01T00:01:31;17.90;99.90
25482;DHT22;13395;50.752;4.268;2023-08-01T00:03:57;17.90;99.90
25482;DHT22;13395;50.752;4.268;2023-08-01T00:06:22;17.90;99.90
25482;DHT22;13395;50.752;4.268;2023-08-01T00:08:49;17.90;99.90
25482;DHT22;13395;50.752;4.268;2023-08-01T00:11:15;17.90;99.90
25482;DHT22;13395;50.752;4.268;2023-08-01T00:13:41;17.80;99.90
25482;DHT22;13395;50.752;4.268;2023-08-01T00:16:08;17.80;99.90
25482;DHT22;13395;50.752;4.268;2023-08-01T00:18:33;17.70;99.90
25482;DHT22;13395;50.752;4.268;2023-08-01T00:20:59;17.60;99.90
25482;DHT22;13395;50.752;4.268;2023-08-01T00:23:25;17.80;99.90
25482;DHT22;13395;50.752;4.268;2023-08-01T00:25:50;17.80;99.90
25482;DHT22;13395;50.752;4.268;2023-08-01T00:28:22;17.80;99.90
25482;DHT22;13395;50.752;4.268;2023-08-01T00:30:47;17.70;99.90
25482;DHT22;13395;50.752;4.268;2023-08-01T00:33:13;17.80;99.90
25482;DHT22;13395;50.752;4.268;2023-08-01T00:35:40;17.70;99.90
25482;DHT22;13395;50.752;4.268;2023-08-01T00:38:06;17.70;99.90
25482;DHT22;13395;50.752;4.268;2023-08-01T00:40:32;17.70;99.90
25482;DHT22;13395;50.752;4.268;2023-08-01T00:42:58;17.70;99.90
25482;DHT22;13395;50.752;4.268;2023-08-01T00:45:25;17.60;99.90
25482;DHT22;13395;50.752;4.268;2023-08-01T00:47:52;17.60;99.90
25482;DHT22;13395;50.752;4.268;2023-08-01T00:50:18;17.50;99.90
25482;DHT22;13395;50.752;4.268;2023-08-01T00:52:46;17.60;99.90
25482;DHT22;13395;50.752;4.268;2023-08-01T00:55:12;17.60;99.90
25482;DHT22;13395;50.752;4.268;2023-08-01T00:57:38;17.50;99.90
25482;DHT22;13395;50.752;4.268;2023-08-01T01:00:04;17.50;99.90
25482;DHT22;13395;50.752;4.268;2023-08-01T01:02:30;17.50;99.90
25482;DHT22;13395;50.752;4.268;2023-08-01T01:04:56;17.50;99.90
25482;DHT22;13395;50.752;4.268;2023-08-01T01:07:22;17.50;99.90
25482;DHT22;13395;50.752;4.268;2023-08-01T01:09:50;17.50;99.90
25482;DHT22;13395;50.752;4.268;2023-08-01T01:12:15;17.30;99.90
25482;DHT22;13395;50.752;4.268;2023-08-01T01:14:41;17.40;99.90
25482;DHT22;13395;50.752;4.268;2023-08-01T01:17:06;17.30;99.90
25482;DHT22;13395;50.752;4.268;2023-08-01T01:19:32;17.20;99.90
25482;DHT22;13395;50.752;4.268;2023-08-01T01:21:58;17.20;99.90
25482;DHT22;13395;50.752;4.268;2023-08-01T01:24:25;17.20;99.90
25482;DHT22;13395;50.752;4.268;2023-08-01T01:26:51;17.10;99.90
25482;DHT22;13395;50.752;4.268;2023-08-01T01:29:18;17.20;99.90
25482;DHT22;13395;50.752;4.268;2023-08-01T01:31:46;17.10;99.90
25482;DHT22;13395;50.752;4.268;2023-08-01T01:34:13;17.10;99.90
25482;DHT22;13395;50.752;4.268;2023-08-01T01:36:39;17.10;99.90
25482;DHT22;13395;50.752;4.268;2023-08-01T01:39:04;17.10;99.90
25482;DHT22;13395;50.752;4.268;2023-08-01T01:41:30;17.10;99.90
25482;DHT22;13395;50.752;4.268;2023-08-01T01:43:56;17.10;99.90
25482;DHT22;13395;50.752;4.268;2023-08-01T01:46:21;17.30;99.90
25482;DHT22;13395;50.752;4.268;2023-08-01T01:48:47;17.20;99.90
25482;DHT22;13395;50.752;4.268;2023-08-01T01:51:13;17.20;99.90
25482;DHT22;13395;50.752;4.268;2023-08-01T01:53:39;17.10;99.90
25482;DHT22;13395;50.752;4.268;2023-08-01T01:56:04;17.10;99.90
25482;DHT22;13395;50.752;4.268;2023-08-01T01:58:30;17.10;99.90
25482;DHT22;13395;50.752;4.268;2023-08-01T02:00:55;17.10;99.90
25482;DHT22;13395;50.752;4.268;2023-08-01T02:03:21;17.10;99.90
25482;DHT22;13395;50.752;4.268;2023-08-01T02:05:46;16.90;99.90
25482;DHT22;13395;50.752;4.268;2023-08-01T02:08:12;16.80;99.90
25482;DHT22;13395;50.752;4.268;2023-08-01T02:10:38;16.80;99.90
25482;DHT22;13395;50.752;4.268;2023-08-01T02:13:04;17.00;99.90
25482;DHT22;13395;50.752;4.268;2023-08-01T02:15:29;17.00;99.90
25482;DHT22;13395;50.752;4.268;2023-08-01T02:17:55;16.90;99.90
25482;DHT22;13395;50.752;4.268;2023-08-01T02:20:21;16.90;99.90
25482;DHT22;13395;50.752;4.268;2023-08-01T02:22:47;16.90;99.90
25482;DHT22;13395;50.752;4.268;2023-08-01T02:25:12;16.90;99.90
25482;DHT22;13395;50.752;4.268;2023-08-01T02:27:38;16.90;99.90
25482;DHT22;13395;50.752;4.268;2023-08-01T02:30:04;16.90;99.90
25482;DHT22;13395;50.752;4.268;2023-08-01T02:32:31;16.70;99.90
25482;DHT22;13395;50.752;4.268;2023-08-01T02:34:56;16.80;99.90
25482;DHT22;13395;50.752;4.268;2023-08-01T02:37:22;16.80;99.90
25482;DHT22;13395;50.752;4.268;2023-08-01T02:39:47;16.80;99.90
25482;DHT22;13395;50.752;4.268;2023-08-01T02:42:13;16.90;99.90
25482;DHT22;13395;50.752;4.268;2023-08-01T02:44:38;16.90;99.90
25482;DHT22;13395;50.752;4.268;2023-08-01T02:47:04;16.90;99.90
25482;DHT22;13395;50.752;4.268;2023-08-01T02:49:31;17.00;99.90
25482;DHT22;13395;50.752;4.268;2023-08-01T02:51:57;17.30;99.90
25482;DHT22;13395;50.752;4.268;2023-08-01T02:54:24;17.20;99.90
25482;DHT22;13395;50.752;4.268;2023-08-01T02:56:49;17.10;99.90
25482;DHT22;13395;50.752;4.268;2023-08-01T02:59:15;17.10;99.90
25482;DHT22;13395;50.752;4.268;2023-08-01T03:01:41;17.10;99.90
25482;DHT22;13395;50.752;4.268;2023-08-01T03:04:07;17.10;99.90
25482;DHT22;13395;50.752;4.268;2023-08-01T03:06:32;17.10;99.90
25482;DHT22;13395;50.752;4.268;2023-08-01T03:08:58;17.00;99.90
25482;DHT22;13395;50.752;4.268;2023-08-01T03:11:24;17.10;99.90
25482;DHT22;13395;50.752;4.268;2023-08-01T03:13:50;17.10;99.90
25482;DHT22;13395;50.752;4.268;2023-08-01T03:16:16;17.10;99.90
25482;DHT22;13395;50.752;4.268;2023-08-01T03:18:42;17.20;99.90
25482;DHT22;13395;50.752;4.268;2023-08-01T03:21:08;17.20;99.90
25482;DHT22;13395;50.752;4.268;2023-08-01T03:23:34;17.20;99.90
25482;DHT22;13395;50.752;4.268;2023-08-01T03:26:00;17.20;99.90
25482;DHT22;13395;50.752;4.268;2023-08-01T03:28:29;17.20;99.90
25482;DHT22;13395;50.752;4.268;2023-08-01T03:30:55;17.20;99.90
25482;DHT22;13395;50.752;4.268;2023-08-01T03:33:21;17.20;99.90
25482;DHT22;13395;50.752;4.268;2023-08-01T03:35:46;17.20;99.90
25482;DHT22;13395;50.752;4.268;2023-08-01T03:38:12;17.10;99.90
25482;DHT22;13395;50.752;4.268;2023-08-01T03:40:38;17.10;99.90
25482;DHT22;13395;50.752;4.268;2023-08-01T03:43:04;17.10;99.90
25482;DHT22;13395;50.752;4.268;2023-08-01T03:45:30;17.00;99.90
25482;DHT22;13395;50.752;4.268;2023-08-01T03:47:56;17.30;99.90
25482;DHT22;13395;50.752;4.268;2023-08-01T03:50:21;17.10;99.90
25482;DHT22;13395;50.752;4.268;2023-08-01T03:52:47;17.00;99.90
25482;DHT22;13395;50.752;4.268;2023-08-01T03:55:12;17.10;99.90
25482;DHT22;13395;50.752;4.268;2023-08-01T03:57:38;17.00;99.90
25482;DHT22;13395;50.752;4.268;2023-08-01T04:00:07;17.00;99.90
25482;DHT22;13395;50.752;4.268;2023-08-01T04:02:40;17.00;99.90
25482;DHT22;13395;50.752;4.268;2023-08-01T04:05:06;16.90;99.90
25482;DHT22;13395;50.752;4.268;2023-08-01T04:07:31;17.00;99.90
25482;DHT22;13395;50.752;4.268;2023-08-01T04:09:57;16.90;99.90
25482;DHT22;13395;50.752;4.268;2023-08-01T04:12:22;17.00;99.90
25482;DHT22;13395;50.752;4.268;2023-08-01T04:14:48;17.00;99.90
25482;DHT22;13395;50.752;4.268;2023-08-01T04:17:14;16.90;99.90
25482;DHT22;13395;50.752;4.268;2023-08-01T04:19:39;16.80;99.90
25482;DHT22;13395;50.752;4.268;2023-08-01T04:22:05;16.80;99.90
25482;DHT22;13395;50.752;4.268;2023-08-01T04:24:30;16.70;99.90
25482;DHT22;13395;50.752;4.268;2023-08-01T04:26:56;16.80;99.90
25482;DHT22;13395;50.752;4.268;2023-08-01T04:29:22;16.70;99.90
25482;DHT22;13395;50.752;4.268;2023-08-01T04:31:47;16.80;99.90
25482;DHT22;13395;50.752;4.268;2023-08-01T04:34:13;16.80;99.90
25482;DHT22;13395;50.752;4.268;2023-08-01T04:36:38;16.80;99.90
25482;DHT22;13395;50.752;4.268;2023-08-01T04:39:04;16.80;99.90
25482;DHT22;13395;50.752;4.268;2023-08-01T04:41:31;16.90;99.90
25482;DHT22;13395;50.752;4.268;2023-08-01T04:43:56;16.90;99.90
25482;DHT22;13395;50.752;4.268;2023-08-01T04:46:22;16.80;99.90
25482;DHT22;13395;50.752;4.268;2023-08-01T04:48:48;16.80;99.90
25482;DHT22;13395;50.752;4.268;2023-08-01T04:51:14;16.90;99.90
25482;DHT22;13395;50.752;4.268;2023-08-01T04:53:39;17.00;99.90
25482;DHT22;13395;50.752;4.268;2023-08-01T04:56:05;17.00;99.90
25482;DHT22;13395;50.752;4.268;2023-08-01T04:58:31;17.10;99.90
25482;DHT22;13395;50.752;4.268;2023-08-01T05:00:56;17.10;99.90
25482;DHT22;13395;50.752;4.268;2023-08-01T05:03:22;17.10;99.90
25482;DHT22;13395;50.752;4.268;2023-08-01T05:05:47;17.00;99.90
25482;DHT22;13395;50.752;4.268;2023-08-01T05:08:13;17.00;99.90
25482;DHT22;13395;50.752;4.268;2023-08-01T05:10:39;17.00;99.90
25482;DHT22;13395;50.752;4.268;2023-08-01T05:13:05;17.00;99.90
25482;DHT22;13395;50.752;4.268;2023-08-01T05:15:30;17.00;99.90
25482;DHT22;13395;50.752;4.268;2023-08-01T05:17:56;17.00;99.90
25482;DHT22;13395;50.752;4.268;2023-08-01T05:20:22;17.20;99.90
25482;DHT22;13395;50.752;4.268;2023-08-01T05:22:47;17.20;99.90
25482;DHT22;13395;50.752;4.268;2023-08-01T05:25:13;17.20;99.90
25482;DHT22;13395;50.752;4.268;2023-08-01T05:27:38;17.30;99.90
25482;DHT22;13395;50.752;4.268;2023-08-01T05:30:04;17.40;99.90
25482;DHT22;13395;50.752;4.268;2023-08-01T05:32:30;17.40;99.90
25482;DHT22;13395;50.752;4.268;2023-08-01T05:34:55;17.40;99.90
25482;DHT22;13395;50.752;4.268;2023-08-01T05:37:22;17.40;99.90
25482;DHT22;13395;50.752;4.268;2023-08-01T05:39:48;17.50;99.90
25482;DHT22;13395;50.752;4.268;2023-08-01T05:42:13;17.60;99.90
25482;DHT22;13395;50.752;4.268;2023-08-01T05:44:39;17.60;99.90
25482;DHT22;13395;50.752;4.268;2023-08-01T05:47:05;17.50;99.90
25482;DHT22;13395;50.752;4.268;2023-08-01T05:49:30;17.50;99.90
25482;DHT22;13395;50.752;4.268;2023-08-01T05:51:57;17.50;99.90
25482;DHT22;13395;50.752;4.268;2023-08-01T05:54:22;17.50;99.90
25482;DHT22;13395;50.752;4.268;2023-08-01T05:56:48;17.50;99.90
25482;DHT22;13395;50.752;4.268;2023-08-01T05:59:13;17.50;99.90
25482;DHT22;13395;50.752;4.268;2023-08-01T06:01:39;17.60;99.90
25482;DHT22;13395;50.752;4.268;2023-08-01T06:04:04;17.60;99.90
25482;DHT22;13395;50.752;4.268;2023-08-01T06:06:30;17.60;99.90
25482;DHT22;13395;50.752;4.268;2023-08-01T06:08:56;17.60;99.90
25482;DHT22;13395;50.752;4.268;2023-08-01T06:11:21;17.70;99.90
25482;DHT22;13395;50.752;4.268;2023-08-01T06:13:47;17.90;99.90
25482;DHT22;13395;50.752;4.268;2023-08-01T06:16:13;18.10;99.90
25482;DHT22;13395;50.752;4.268;2023-08-01T06:18:38;18.20;99.90
25482;DHT22;13395;50.752;4.268;2023-08-01T06:21:04;18.40;99.90
25482;DHT22;13395;50.752;4.268;2023-08-01T06:23:29;18.60;99.90
25482;DHT22;13395;50.752;4.268;2023-08-01T06:25:55;18.70;99.90
25482;DHT22;13395;50.752;4.268;2023-08-01T06:28:20;18.60;99.90
25482;DHT22;13395;50.752;4.268;2023-08-01T06:30:46;18.60;99.90
25482;DHT22;13395;50.752;4.268;2023-08-01T06:33:12;18.50;99.90
25482;DHT22;13395;50.752;4.268;2023-08-01T06:35:38;18.60;99.90
25482;DHT22;13395;50.752;4.268;2023-08-01T06:38:03;18.50;99.90
25482;DHT22;13395;50.752;4.268;2023-08-01T06:40:29;18.60;99.90
25482;DHT22;13395;50.752;4.268;2023-08-01T06:42:54;18.80;99.90
25482;DHT22;13395;50.752;4.268;2023-08-01T06:45:20;18.80;99.90
25482;DHT22;13395;50.752;4.268;2023-08-01T06:47:45;18.80;99.90
25482;DHT22;13395;50.752;4.268;2023-08-01T06:50:11;18.70;99.90
25482;DHT22;13395;50.752;4.268;2023-08-01T06:52:37;18.80;99.90
25482;DHT22;13395;50.752;4.268;2023-08-01T06:55:02;19.10;99.90
25482;DHT22;13395;50.752;4.268;2023-08-01T06:57:28;19.30;99.90
25482;DHT22;13395;50.752;4.268;2023-08-01T06:59:54;19.70;99.90
25482;DHT22;13395;50.752;4.268;2023-08-01T07:02:19;20.00;99.90
25482;DHT22;13395;50.752;4.268;2023-08-01T07:04:45;20.10;99.90
25482;DHT22;13395;50.752;4.268;2023-08-01T07:07:11;19.90;99.90
25482;DHT22;13395;50.752;4.268;2023-08-01T07:09:37;20.00;99.90
25482;DHT22;13395;50.752;4.268;2023-08-01T07:12:03;20.00;99.90
25482;DHT22;13395;50.752;4.268;2023-08-01T07:14:28;20.20;99.90
25482;DHT22;13395;50.752;4.268;2023-08-01T07:16:54;20.10;99.90
25482;DHT22;13395;50.752;4.268;2023-08-01T07:19:19;20.20;99.90
25482;DHT22;13395;50.752;4.268;2023-08-01T07:21:45;20.30;99.90
25482;DHT22;13395;50.752;4.268;2023-08-01T07:24:13;20.30;99.90
25482;DHT22;13395;50.752;4.268;2023-08-01T07:26:39;20.20;99.90
25482;DHT22;13395;50.752;4.268;2023-08-01T07:29:05;20.00;99.90
25482;DHT22;13395;50.752;4.268;2023-08-01T07:31:30;20.10;99.90
25482;DHT22;13395;50.752;4.268;2023-08-01T07:33:56;20.00;99.90
25482;DHT22;13395;50.752;4.268;2023-08-01T07:36:22;20.00;99.90
25482;DHT22;13395;50.752;4.268;2023-08-01T07:38:47;19.50;99.90
25482;DHT22;13395;50.752;4.268;2023-08-01T07:41:13;19.30;99.90
25482;DHT22;13395;50.752;4.268;2023-08-01T07:43:38;19.20;99.90
25482;DHT22;13395;50.752;4.268;2023-08-01T07:46:04;19.50;99.90
25482;DHT22;13395;50.752;4.268;2023-08-01T07:48:29;20.40;99.90
25482;DHT22;13395;50.752;4.268;2023-08-01T07:50:55;21.20;99.90
25482;DHT22;13395;50.752;4.268;2023-08-01T07:53:20;22.10;99.90
25482;DHT22;13395;50.752;4.268;2023-08-01T07:55:46;22.90;99.90
25482;DHT22;13395;50.752;4.268;2023-08-01T07:58:12;23.80;99.90
25482;DHT22;13395;50.752;4.268;2023-08-01T08:00:37;24.40;99.90
25482;DHT22;13395;50.752;4.268;2023-08-01T08:03:04;25.90;99.90
25482;DHT22;13395;50.752;4.268;2023-08-01T08:05:31;26.90;99.90
25482;DHT22;13395;50.752;4.268;2023-08-01T08:07:56;27.40;99.90
25482;DHT22;13395;50.752;4.268;2023-08-01T08:10:22;28.00;99.90
25482;DHT22;13395;50.752;4.268;2023-08-01T08:12:47;27.90;99.90
25482;DHT22;13395;50.752;4.268;2023-08-01T08:15:13;27.10;99.90
25482;DHT22;13395;50.752;4.268;2023-08-01T08:17:41;25.40;99.90
25482;DHT22;13395;50.752;4.268;2023-08-01T08:20:07;24.20;99.90
25482;DHT22;13395;50.752;4.268;2023-08-01T08:22:32;23.00;99.90
25482;DHT22;13395;50.752;4.268;2023-08-01T08:24:58;22.20;99.90
25482;DHT22;13395;50.752;4.268;2023-08-01T08:27:24;22.50;99.90
25482;DHT22;13395;50.752;4.268;2023-08-01T08:29:50;24.00;99.90
25482;DHT22;13395;50.752;4.268;2023-08-01T08:32:16;25.80;99.90
25482;DHT22;13395;50.752;4.268;2023-08-01T08:34:42;27.10;99.90
25482;DHT22;13395;50.752;4.268;2023-08-01T08:37:08;27.80;99.90
25482;DHT22;13395;50.752;4.268;2023-08-01T08:39:34;27.60;99.90
25482;DHT22;13395;50.752;4.268;2023-08-01T08:41:59;27.70;99.90
25482;DHT22;13395;50.752;4.268;2023-08-01T08:44:25;28.00;99.90
25482;DHT22;13395;50.752;4.268;2023-08-01T08:46:54;27.90;99.90
25482;DHT22;13395;50.752;4.268;2023-08-01T08:49:21;27.90;99.90
25482;DHT22;13395;50.752;4.268;2023-08-01T08:51:47;28.00;99.30
25482;DHT22;13395;50.752;4.268;2023-08-01T08:54:15;27.60;99.20
25482;DHT22;13395;50.752;4.268;2023-08-01T08:56:41;27.70;99.90
25482;DHT22;13395;50.752;4.268;2023-08-01T08:59:10;27.90;99.90
25482;DHT22;13395;50.752;4.268;2023-08-01T09:01:37;27.50;99.40
25482;DHT22;13395;50.752;4.268;2023-08-01T09:04:03;27.50;99.90
25482;DHT22;13395;50.752;4.268;2023-08-01T09:06:46;27.30;99.60
25482;DHT22;13395;50.752;4.268;2023-08-01T09:09:14;26.70;99.90
25482;DHT22;13395;50.752;4.268;2023-08-01T09:14:10;26.70;99.90
25482;DHT22;13395;50.752;4.268;2023-08-01T09:16:36;26.50;99.90
25482;DHT22;13395;50.752;4.268;2023-08-01T09:19:05;26.50;99.90
25482;DHT22;13395;50.752;4.268;2023-08-01T09:21:32;27.30;99.90
25482;DHT22;13395;50.752;4.268;2023-08-01T09:24:10;28.70;98.30
25482;DHT22;13395;50.752;4.268;2023-08-01T09:26:36;28.80;96.40
25482;DHT22;13395;50.752;4.268;2023-08-01T09:29:02;27.30;98.00
25482;DHT22;13395;50.752;4.268;2023-08-01T09:31:33;26.10;99.90
25482;DHT22;13395;50.752;4.268;2023-08-01T09:33:59;25.70;99.90
25482;DHT22;13395;50.752;4.268;2023-08-01T09:36:25;25.00;99.90
25482;DHT22;13395;50.752;4.268;2023-08-01T09:38:51;24.30;99.90
25482;DHT22;13395;50.752;4.268;2023-08-01T09:41:18;23.90;99.90
25482;DHT22;13395;50.752;4.268;2023-08-01T09:43:46;23.70;99.90
25482;DHT22;13395;50.752;4.268;2023-08-01T09:46:12;23.60;99.90
25482;DHT22;13395;50.752;4.268;2023-08-01T09:48:38;23.20;99.90
25482;DHT22;13395;50.752;4.268;2023-08-01T09:51:11;22.90;99.90
25482;DHT22;13395;50.752;4.268;2023-08-01T09:53:56;23.00;99.90
25482;DHT22;13395;50.752;4.268;2023-08-01T09:56:26;23.40;99.90
25482;DHT22;13395;50.752;4.268;2023-08-01T09:58:53;23.70;99.90
25482;DHT22;13395;50.752;4.268;2023-08-01T10:01:24;23.60;99.90
25482;DHT22;13395;50.752;4.268;2023-08-01T10:03:52;23.70;99.90
25482;DHT22;13395;50.752;4.268;2023-08-01T10:06:19;24.40;99.90
25482;DHT22;13395;50.752;4.268;2023-08-01T10:08:46;25.30;99.90
25482;DHT22;13395;50.752;4.268;2023-08-01T10:11:14;26.90;99.90
25482;DHT22;13395;50.752;4.268;2023-08-01T10:13:42;27.90;99.90
25482;DHT22;13395;50.752;4.268;2023-08-01T10:16:08;28.30;99.20
25482;DHT22;13395;50.752;4.268;2023-08-01T10:18:34;28.40;98.50
25482;DHT22;13395;50.752;4.268;2023-08-01T10:21:04;28.10;97.80
25482;DHT22;13395;50.752;4.268;2023-08-01T10:23:30;28.30;97.90
25482;DHT22;13395;50.752;4.268;2023-08-01T10:25:56;28.70;98.20
25482;DHT22;13395;50.752;4.268;2023-08-01T10:31:12;29.70;95.20
25482;DHT22;13395;50.752;4.268;2023-08-01T10:33:40;28.40;95.20
25482;DHT22;13395;50.752;4.268;2023-08-01T10:36:20;27.00;96.50
25482;DHT22;13395;50.752;4.268;2023-08-01T10:38:54;26.80;98.40
25482;DHT22;13395;50.752;4.268;2023-08-01T10:41:31;27.70;97.50
25482;DHT22;13395;50.752;4.268;2023-08-01T10:44:14;27.80;95.90
25482;DHT22;13395;50.752;4.268;2023-08-01T10:49:11;27.00;97.30
25482;DHT22;13395;50.752;4.268;2023-08-01T10:51:37;26.70;97.60
25482;DHT22;13395;50.752;4.268;2023-08-01T10:54:02;26.60;98.10
25482;DHT22;13395;50.752;4.268;2023-08-01T10:56:28;26.50;97.30
25482;DHT22;13395;50.752;4.268;2023-08-01T10:58:57;26.80;96.40
25482;DHT22;13395;50.752;4.268;2023-08-01T11:01:23;26.80;96.20
25482;DHT22;13395;50.752;4.268;2023-08-01T11:03:48;27.50;96.40
25482;DHT22;13395;50.752;4.268;2023-08-01T11:06:15;28.10;93.90
25482;DHT22;13395;50.752;4.268;2023-08-01T11:08:41;28.60;92.10
25482;DHT22;13395;50.752;4.268;2023-08-01T11:11:11;27.70;92.70
25482;DHT22;13395;50.752;4.268;2023-08-01T11:13:38;26.70;94.60
25482;DHT22;13395;50.752;4.268;2023-08-01T11:16:04;26.00;95.60
25482;DHT22;13395;50.752;4.268;2023-08-01T11:18:41;25.60;96.30
25482;DHT22;13395;50.752;4.268;2023-08-01T11:21:07;26.50;95.30
25482;DHT22;13395;50.752;4.268;2023-08-01T11:23:33;28.20;93.90
25482;DHT22;13395;50.752;4.268;2023-08-01T11:25:58;29.40;91.80
25482;DHT22;13395;50.752;4.268;2023-08-01T11:28:25;28.90;91.60
25482;DHT22;13395;50.752;4.268;2023-08-01T11:30:51;28.70;92.50
25482;DHT22;13395;50.752;4.268;2023-08-01T11:33:19;28.30;92.90
25482;DHT22;13395;50.752;4.268;2023-08-01T11:35:49;28.20;93.70
25482;DHT22;13395;50.752;4.268;2023-08-01T11:38:15;28.30;93.10
25482;DHT22;13395;50.752;4.268;2023-08-01T11:40:42;28.60;91.80
25482;DHT22;13395;50.752;4.268;2023-08-01T11:43:08;27.60;91.50
25482;DHT22;13395;50.752;4.268;2023-08-01T11:45:33;26.80;94.00
25482;DHT22;13395;50.752;4.268;2023-08-01T11:47:59;27.60;94.00
25482;DHT22;13395;50.752;4.268;2023-08-01T11:50:25;28.10;91.10
25482;DHT22;13395;50.752;4.268;2023-08-01T11:52:51;28.60;90.80
25482;DHT22;13395;50.752;4.268;2023-08-01T11:55:22;28.50;91.50
25482;DHT22;13395;50.752;4.268;2023-08-01T11:57:55;29.00;90.70
25482;DHT22;13395;50.752;4.268;2023-08-01T12:00:23;28.70;90.70
25482;DHT22;13395;50.752;4.268;2023-08-01T12:02:48;27.80;91.60
25482;DHT22;13395;50.752;4.268;2023-08-01T12:05:22;27.60;92.40
25482;DHT22;13395;50.752;4.268;2023-08-01T12:07:47;26.90;93.30
25482;DHT22;13395;50.752;4.268;2023-08-01T12:10:13;26.70;93.10
25482;DHT22;13395;50.752;4.268;2023-08-01T12:12:46;27.00;92.80
25482;DHT22;13395;50.752;4.268;2023-08-01T12:15:15;27.70;91.70
25482;DHT22;13395;50.752;4.268;2023-08-01T12:17:41;28.20;91.20
25482;DHT22;13395;50.752;4.268;2023-08-01T12:20:07;29.00;88.80
25482;DHT22;13395;50.752;4.268;2023-08-01T12:22:33;29.00;86.40
25482;DHT22;13395;50.752;4.268;2023-08-01T12:24:58;29.10;87.00
25482;DHT22;13395;50.752;4.268;2023-08-01T12:27:24;29.80;86.10
25482;DHT22;13395;50.752;4.268;2023-08-01T12:29:49;29.90;84.40
25482;DHT22;13395;50.752;4.268;2023-08-01T12:32:15;29.60;84.30
25482;DHT22;13395;50.752;4.268;2023-08-01T12:34:41;29.00;84.90
25482;DHT22;13395;50.752;4.268;2023-08-01T12:37:06;28.10;86.80
25482;DHT22;13395;50.752;4.268;2023-08-01T12:39:32;27.70;87.10
25482;DHT22;13395;50.752;4.268;2023-08-01T12:41:57;27.50;88.10
25482;DHT22;13395;50.752;4.268;2023-08-01T12:44:23;27.10;90.20
25482;DHT22;13395;50.752;4.268;2023-08-01T12:46:49;26.40;89.80
25482;DHT22;13395;50.752;4.268;2023-08-01T12:49:14;25.90;90.40
25482;DHT22;13395;50.752;4.268;2023-08-01T12:51:40;26.10;90.20
25482;DHT22;13395;50.752;4.268;2023-08-01T12:54:05;26.30;91.50
25482;DHT22;13395;50.752;4.268;2023-08-01T12:56:31;27.00;90.70
25482;DHT22;13395;50.752;4.268;2023-08-01T12:58:57;27.60;90.40
25482;DHT22;13395;50.752;4.268;2023-08-01T13:01:22;28.20;86.00
25482;DHT22;13395;50.752;4.268;2023-08-01T13:03:48;27.50;87.70
25482;DHT22;13395;50.752;4.268;2023-08-01T13:06:13;26.70;89.60
25482;DHT22;13395;50.752;4.268;2023-08-01T13:08:39;26.40;90.60
25482;DHT22;13395;50.752;4.268;2023-08-01T13:11:12;26.00;91.40
25482;DHT22;13395;50.752;4.268;2023-08-01T13:13:39;25.40;92.10
25482;DHT22;13395;50.752;4.268;2023-08-01T13:16:05;25.20;93.60
25482;DHT22;13395;50.752;4.268;2023-08-01T13:18:30;25.00;93.70
25482;DHT22;13395;50.752;4.268;2023-08-01T13:21:00;25.00;94.70
25482;DHT22;13395;50.752;4.268;2023-08-01T13:23:26;24.90;94.80
25482;DHT22;13395;50.752;4.268;2023-08-01T13:25:52;24.80;94.30
25482;DHT22;13395;50.752;4.268;2023-08-01T13:28:17;24.80;95.40
25482;DHT22;13395;50.752;4.268;2023-08-01T13:30:43;25.10;95.10
25482;DHT22;13395;50.752;4.268;2023-08-01T13:33:08;25.30;94.40
25482;DHT22;13395;50.752;4.268;2023-08-01T13:35:34;25.20;94.30
25482;DHT22;13395;50.752;4.268;2023-08-01T13:38:00;25.10;93.80
25482;DHT22;13395;50.752;4.268;2023-08-01T13:40:26;24.90;95.00
25482;DHT22;13395;50.752;4.268;2023-08-01T13:42:51;25.10;95.10
25482;DHT22;13395;50.752;4.268;2023-08-01T13:45:17;24.90;94.90
25482;DHT22;13395;50.752;4.268;2023-08-01T13:47:42;24.90;96.20
25482;DHT22;13395;50.752;4.268;2023-08-01T13:50:08;24.90;94.60
25482;DHT22;13395;50.752;4.268;2023-08-01T13:52:36;24.90;95.60
25482;DHT22;13395;50.752;4.268;2023-08-01T13:55:02;24.80;94.80
25482;DHT22;13395;50.752;4.268;2023-08-01T13:57:28;24.80;93.00
25482;DHT22;13395;50.752;4.268;2023-08-01T13:59:54;24.80;91.20
25482;DHT22;13395;50.752;4.268;2023-08-01T14:02:19;24.70;92.50
25482;DHT22;13395;50.752;4.268;2023-08-01T14:04:45;24.40;92.00
25482;DHT22;13395;50.752;4.268;2023-08-01T14:07:10;24.00;92.70
25482;DHT22;13395;50.752;4.268;2023-08-01T14:09:36;24.10;92.70
25482;DHT22;13395;50.752;4.268;2023-08-01T14:12:02;23.90;92.70
25482;DHT22;13395;50.752;4.268;2023-08-01T14:14:28;23.90;93.10
25482;DHT22;13395;50.752;4.268;2023-08-01T14:16:53;23.70;93.40
25482;DHT22;13395;50.752;4.268;2023-08-01T14:19:20;23.70;94.10
25482;DHT22;13395;50.752;4.268;2023-08-01T14:21:46;23.50;94.00
25482;DHT22;13395;50.752;4.268;2023-08-01T14:24:11;23.50;94.30
25482;DHT22;13395;50.752;4.268;2023-08-01T14:26:37;23.70;95.20
25482;DHT22;13395;50.752;4.268;2023-08-01T14:29:02;23.80;95.40
25482;DHT22;13395;50.752;4.268;2023-08-01T14:31:28;23.80;95.80
25482;DHT22;13395;50.752;4.268;2023-08-01T14:33:53;23.40;96.20
25482;DHT22;13395;50.752;4.268;2023-08-01T14:36:19;23.00;97.10
25482;DHT22;13395;50.752;4.268;2023-08-01T14:38:45;22.90;97.00
25482;DHT22;13395;50.752;4.268;2023-08-01T14:41:13;22.70;97.10
25482;DHT22;13395;50.752;4.268;2023-08-01T14:43:40;22.50;97.80
25482;DHT22;13395;50.752;4.268;2023-08-01T14:46:05;22.40;97.80
25482;DHT22;13395;50.752;4.268;2023-08-01T14:48:31;22.40;98.10
25482;DHT22;13395;50.752;4.268;2023-08-01T14:50:56;22.30;97.90
25482;DHT22;13395;50.752;4.268;2023-08-01T14:53:23;22.10;98.90
25482;DHT22;13395;50.752;4.268;2023-08-01T14:55:57;22.10;98.50
25482;DHT22;13395;50.752;4.268;2023-08-01T14:58:25;22.10;99.20
25482;DHT22;13395;50.752;4.268;2023-08-01T15:00:50;21.90;99.50
25482;DHT22;13395;50.752;4.268;2023-08-01T15:03:16;21.90;99.90
25482;DHT22;13395;50.752;4.268;2023-08-01T15:05:41;21.80;99.90
25482;DHT22;13395;50.752;4.268;2023-08-01T15:08:07;21.70;99.90
25482;DHT22;13395;50.752;4.268;2023-08-01T15:10:32;21.50;99.90
25482;DHT22;13395;50.752;4.268;2023-08-01T15:12:58;21.60;99.90
25482;DHT22;13395;50.752;4.268;2023-08-01T15:15:23;21.70;99.90
25482;DHT22;13395;50.752;4.268;2023-08-01T15:17:49;21.70;99.90
25482;DHT22;13395;50.752;4.268;2023-08-01T15:20:15;21.60;99.90
25482;DHT22;13395;50.752;4.268;2023-08-01T15:22:40;21.60;99.90
25482;DHT22;13395;50.752;4.268;2023-08-01T15:25:06;21.70;99.90
25482;DHT22;13395;50.752;4.268;2023-08-01T15:27:32;21.80;99.90
25482;DHT22;13395;50.752;4.268;2023-08-01T15:29:58;21.80;99.90
25482;DHT22;13395;50.752;4.268;2023-08-01T15:32:23;21.80;99.90